createdAt,value
2023-04-06T00:01:46.788Z,12.02
2023-04-06T00:04:31.874Z,9.57
2023-04-06T00:07:17.148Z,9.50
2023-04-06T00:10:03.665Z,9.50
2023-04-06T00:12:48.949Z,9.00
2023-04-06T00:15:35.005Z,8.27
2023-04-06T00:18:20.680Z,9.55
2023-04-06T00:21:06.152Z,8.38
2023-04-06T00:23:51.628Z,9.40
2023-04-06T00:26:36.652Z,7.97
2023-04-06T00:29:22.242Z,7.15
2023-04-06T00:32:07.394Z,7.68
2023-04-06T00:34:52.860Z,7.15
2023-04-06T00:37:38.345Z,8.25
2023-04-06T00:40:23.722Z,8.18
2023-04-06T00:43:11.779Z,8.52
2023-04-06T00:45:56.928Z,6.05
2023-04-06T00:48:42.189Z,7.72
2023-04-06T00:51:28.160Z,7.50
2023-04-06T00:54:13.493Z,9.18
2023-04-06T00:56:59.063Z,9.10
2023-04-06T00:59:45.493Z,11.80
2023-04-06T01:02:31.138Z,9.35
2023-04-06T01:05:16.520Z,8.20
2023-04-06T01:08:01.976Z,7.43
2023-04-06T01:10:47.553Z,8.68
2023-04-06T01:13:33.589Z,6.97
2023-04-06T01:16:19.031Z,8.05
2023-04-06T01:19:12.058Z,7.28
2023-04-06T01:21:57.588Z,9.82
2023-04-06T01:24:42.986Z,9.27
2023-04-06T01:27:30.746Z,7.38
2023-04-06T01:30:17.218Z,9.27
2023-04-06T01:33:02.500Z,7.97
2023-04-06T01:35:47.952Z,7.65
2023-04-06T01:38:33.355Z,7.75
2023-04-06T01:41:18.722Z,10.55
2023-04-06T01:44:04.230Z,8.07
2023-04-06T01:46:49.598Z,8.10
2023-04-06T01:49:35.070Z,6.00
2023-04-06T01:52:21.885Z,6.72
2023-04-06T01:55:07.603Z,7.38
2023-04-06T01:57:52.808Z,11.23
2023-04-06T02:00:38.209Z,9.15
2023-04-06T02:03:23.548Z,7.25
2023-04-06T02:06:08.837Z,6.70
2023-04-06T02:08:54.180Z,8.38
2023-04-06T02:11:39.645Z,8.30
2023-04-06T02:14:28.407Z,9.57
2023-04-06T02:17:13.621Z,10.18
2023-04-06T02:19:59.154Z,8.30
2023-04-06T02:22:45.126Z,9.75
2023-04-06T02:25:30.446Z,8.43
2023-04-06T02:28:15.751Z,7.88
2023-04-06T02:31:01.101Z,7.93
2023-04-06T02:33:46.557Z,6.95
2023-04-06T02:36:31.997Z,8.65
2023-04-06T02:39:18.238Z,8.95
2023-04-06T02:42:03.554Z,6.80
2023-04-06T02:44:49.015Z,10.48
2023-04-06T02:47:34.910Z,9.15
2023-04-06T02:50:20.060Z,9.35
2023-04-06T02:53:05.405Z,12.50
2023-04-06T02:55:50.787Z,7.78
2023-04-06T02:58:36.255Z,7.72
2023-04-06T03:01:21.594Z,9.05
2023-04-06T03:04:06.812Z,6.75
2023-04-06T03:06:52.825Z,8.27
2023-04-06T03:09:39.497Z,6.45
2023-04-06T03:12:24.495Z,6.50
2023-04-06T03:15:10.780Z,10.13
2023-04-06T03:17:56.757Z,7.47
2023-04-06T03:20:43.815Z,7.82
2023-04-06T03:23:29.073Z,10.40
2023-04-06T03:26:14.450Z,6.40
2023-04-06T03:28:59.927Z,7.47
2023-04-06T03:31:45.430Z,8.13
2023-04-06T03:34:31.013Z,7.78
2023-04-06T03:37:16.105Z,6.68
2023-04-06T03:40:01.641Z,9.65
2023-04-06T03:42:46.897Z,5.95
2023-04-06T03:45:32.214Z,7.43
2023-04-06T03:48:17.488Z,14.27
2023-04-06T03:51:02.783Z,6.43
2023-04-06T03:53:48.439Z,7.43
2023-04-06T03:56:33.906Z,7.07
2023-04-06T03:59:19.347Z,6.85
2023-04-06T04:02:04.750Z,8.50
2023-04-06T04:04:50.310Z,8.30
2023-04-06T04:07:35.353Z,8.40
2023-04-06T04:10:20.724Z,9.35
2023-04-06T04:13:06.298Z,7.25
2023-04-06T04:15:51.701Z,7.68
2023-04-06T04:18:37.602Z,8.65
2023-04-06T04:21:23.267Z,9.25
2023-04-06T04:24:08.622Z,7.15
2023-04-06T04:26:53.939Z,6.30
2023-04-06T04:29:39.290Z,9.45
2023-04-06T04:32:28.214Z,7.32
2023-04-06T04:35:14.493Z,9.57
2023-04-06T04:37:59.840Z,5.88
2023-04-06T04:40:45.353Z,8.88
2023-04-06T04:43:32.751Z,7.47
2023-04-06T04:46:18.406Z,7.50
2023-04-06T04:49:03.595Z,7.35
2023-04-06T04:51:49.032Z,8.48
2023-04-06T04:54:34.329Z,6.53
2023-04-06T04:57:19.706Z,7.25
2023-04-06T05:00:09.090Z,8.25
2023-04-06T05:02:54.400Z,7.15
2023-04-06T05:05:39.746Z,8.73
2023-04-06T05:08:25.040Z,8.60
2023-04-06T05:11:10.911Z,10.73
2023-04-06T05:13:56.805Z,6.88
2023-04-06T05:16:42.109Z,6.93
2023-04-06T05:19:27.548Z,9.25
2023-04-06T05:22:15.129Z,6.97
2023-04-06T05:25:00.177Z,8.75
2023-04-06T05:27:45.850Z,8.40
2023-04-06T05:30:31.179Z,8.02
2023-04-06T05:33:16.729Z,7.85
2023-04-06T05:36:02.209Z,7.75
2023-04-06T05:38:47.934Z,7.05
2023-04-06T05:41:33.331Z,10.52
2023-04-06T05:44:18.657Z,7.05
2023-04-06T05:47:03.988Z,8.30
2023-04-06T05:49:49.269Z,8.35
2023-04-06T05:52:34.680Z,9.60
2023-04-06T05:55:20.112Z,9.43
2023-04-06T05:58:05.548Z,8.20
2023-04-06T06:00:50.929Z,7.53
2023-04-06T06:03:36.201Z,9.02
2023-04-06T06:06:21.765Z,11.05
2023-04-06T06:09:07.388Z,7.05
2023-04-06T06:11:52.881Z,8.75
2023-04-06T06:14:38.312Z,10.15
2023-04-06T06:17:23.721Z,8.80
2023-04-06T06:20:09.574Z,14.27
2023-04-06T06:22:54.862Z,8.05
2023-04-06T06:25:40.559Z,8.90
2023-04-06T06:28:26.349Z,11.82
2023-04-06T06:31:11.517Z,10.05
2023-04-06T06:33:57.037Z,12.00
2023-04-06T06:36:42.777Z,9.57
2023-04-06T06:39:27.888Z,10.27
2023-04-06T06:42:14.674Z,10.25
2023-04-06T06:45:00.299Z,10.57
2023-04-06T06:47:45.974Z,8.90
2023-04-06T06:50:31.564Z,10.73
2023-04-06T06:53:17.000Z,8.23
2023-04-06T06:56:02.569Z,11.43
2023-04-06T06:58:48.657Z,10.75
2023-04-06T07:01:35.730Z,12.07
2023-04-06T07:04:21.639Z,10.25
2023-04-06T07:07:07.005Z,8.23
2023-04-06T07:09:52.485Z,9.48
2023-04-06T07:12:37.909Z,6.25
2023-04-06T07:15:23.661Z,6.75
2023-04-06T07:18:08.848Z,6.50
2023-04-06T07:20:54.072Z,7.28
2023-04-06T07:23:39.976Z,9.10
2023-04-06T07:26:25.512Z,5.78
2023-04-06T07:29:10.538Z,5.97
2023-04-06T07:31:56.376Z,5.97
2023-04-06T07:34:41.683Z,7.65
2023-04-06T07:37:27.068Z,7.53
2023-04-06T07:40:12.561Z,5.78
2023-04-06T07:42:58.159Z,8.32
2023-04-06T07:45:43.585Z,6.95
2023-04-06T07:48:28.902Z,5.05
2023-04-06T07:51:15.925Z,6.32
2023-04-06T07:54:01.163Z,9.55
2023-04-06T07:56:46.439Z,7.78
2023-04-06T07:59:31.917Z,5.85
2023-04-06T08:02:17.224Z,7.22
2023-04-06T08:05:02.636Z,7.45
2023-04-06T08:07:47.890Z,5.75
2023-04-06T08:10:35.392Z,9.00
2023-04-06T08:13:21.088Z,8.35
2023-04-06T08:16:06.462Z,8.70
2023-04-06T08:18:51.906Z,6.88
2023-04-06T08:21:37.271Z,6.05
2023-04-06T08:24:22.904Z,13.32
2023-04-06T08:27:08.692Z,8.00
2023-04-06T08:29:53.713Z,9.63
2023-04-06T08:32:39.133Z,10.07
2023-04-06T08:35:24.347Z,9.02
2023-04-06T08:38:09.744Z,9.73
2023-04-06T08:40:55.188Z,7.43
2023-04-06T08:43:50.891Z,9.50
2023-04-06T08:46:36.390Z,8.85
2023-04-06T08:49:22.531Z,7.88
2023-04-06T08:52:11.873Z,12.75
2023-04-06T08:54:57.017Z,9.52
2023-04-06T08:57:43.408Z,10.20
2023-04-06T09:00:29.934Z,9.82
2023-04-06T09:03:16.213Z,9.60
2023-04-06T09:06:01.884Z,6.75
2023-04-06T09:08:47.360Z,7.35
2023-04-06T09:11:47.809Z,8.32
2023-04-06T09:14:40.457Z,10.57
2023-04-06T09:17:28.386Z,7.75
2023-04-06T09:20:14.152Z,7.90
2023-04-06T09:22:59.673Z,8.25
2023-04-06T09:25:45.370Z,10.98
2023-04-06T09:28:30.760Z,7.28
2023-04-06T09:31:18.417Z,8.70
2023-04-06T09:34:03.500Z,7.53
2023-04-06T09:36:48.831Z,8.95
2023-04-06T09:39:34.369Z,7.60
2023-04-06T09:42:26.614Z,8.95
2023-04-06T09:45:11.916Z,6.90
2023-04-06T09:47:57.747Z,8.88
2023-04-06T09:50:43.244Z,7.47
2023-04-06T09:53:32.288Z,9.55
2023-04-06T09:56:21.290Z,6.82
2023-04-06T09:59:13.931Z,7.30
2023-04-06T10:05:02.727Z,9.02
2023-04-06T10:10:43.501Z,9.98
2023-04-06T10:13:29.034Z,9.63
2023-04-06T10:16:16.115Z,7.20
2023-04-06T10:19:13.394Z,8.73
2023-04-06T10:22:00.820Z,9.02
2023-04-06T10:24:45.913Z,7.30
2023-04-06T10:27:33.478Z,8.57
2023-04-06T10:30:18.678Z,10.43
2023-04-06T10:33:14.698Z,9.57
2023-04-06T10:36:23.281Z,7.70
2023-04-06T10:39:08.449Z,8.35
2023-04-06T10:41:53.999Z,7.10
2023-04-06T10:44:44.504Z,6.40
2023-04-06T10:47:40.847Z,8.13
2023-04-06T10:50:26.340Z,7.97
2023-04-06T10:53:11.503Z,9.75
2023-04-06T10:55:57.840Z,7.60
2023-04-06T10:58:52.222Z,7.03
2023-04-06T11:01:37.358Z,6.78
2023-04-06T11:04:24.299Z,7.00
2023-04-06T11:07:09.726Z,5.97
2023-04-06T11:10:12.585Z,5.47
2023-04-06T11:13:00.285Z,6.00
2023-04-06T11:15:45.742Z,6.60
2023-04-06T11:18:32.158Z,6.13
2023-04-06T11:21:17.890Z,6.60
2023-04-06T11:24:17.055Z,6.15
2023-04-06T11:27:02.260Z,5.60
2023-04-06T11:29:48.202Z,6.40
2023-04-06T11:32:43.236Z,8.63
2023-04-06T11:35:28.274Z,6.28
2023-04-06T11:38:13.666Z,7.00
2023-04-06T11:40:59.202Z,6.22
2023-04-06T11:43:48.814Z,5.70
2023-04-06T11:46:34.257Z,6.13
2023-04-06T11:49:19.720Z,6.70
2023-04-06T11:52:23.200Z,6.10
2023-04-06T11:55:19.471Z,6.95
2023-04-06T11:58:04.910Z,7.20
2023-04-06T12:00:50.276Z,6.53
2023-04-06T12:03:35.780Z,8.00
2023-04-06T12:06:21.050Z,7.82
2023-04-06T12:09:06.656Z,6.80
2023-04-06T12:11:51.929Z,6.35
2023-04-06T12:14:37.301Z,10.88
2023-04-06T12:17:22.865Z,5.88
2023-04-06T12:20:18.048Z,8.15
2023-04-06T12:23:07.808Z,6.88
2023-04-06T12:25:53.470Z,7.13
2023-04-06T12:28:38.721Z,7.35
2023-04-06T12:31:26.352Z,5.55
2023-04-06T12:34:11.733Z,6.75
2023-04-06T12:36:57.703Z,5.75
2023-04-06T12:39:45.319Z,8.60
2023-04-06T12:42:30.561Z,6.22
2023-04-06T12:45:16.014Z,6.85
2023-04-06T12:48:01.358Z,6.13
2023-04-06T12:51:02.198Z,6.13
2023-04-06T12:53:47.543Z,6.38
2023-04-06T12:56:33.626Z,6.50
2023-04-06T12:59:18.829Z,9.80
2023-04-06T13:02:04.832Z,5.55
2023-04-06T13:04:51.117Z,6.45
2023-04-06T13:07:36.314Z,8.38
2023-04-06T13:10:21.733Z,6.78
2023-04-06T13:13:07.200Z,6.80
2023-04-06T13:15:53.449Z,6.60
2023-04-06T13:18:39.795Z,6.10
2023-04-06T13:21:25.882Z,5.82
2023-04-06T13:24:11.182Z,4.93
2023-04-06T13:26:56.822Z,6.22
2023-04-06T13:29:42.116Z,6.55
2023-04-06T13:32:27.485Z,6.50
2023-04-06T13:35:13.138Z,7.57
2023-04-06T13:37:58.394Z,5.10
2023-04-06T13:40:43.916Z,6.82
2023-04-06T13:43:29.137Z,5.72
2023-04-06T13:46:14.577Z,6.97
2023-04-06T13:48:59.917Z,5.50
2023-04-06T13:51:45.360Z,7.75
2023-04-06T13:54:30.934Z,7.05
2023-04-06T13:57:16.198Z,6.30
2023-04-06T14:00:02.880Z,6.68
2023-04-06T14:02:50.859Z,6.22
2023-04-06T14:05:36.156Z,6.05
2023-04-06T14:08:21.868Z,5.57
2023-04-06T14:11:11.326Z,6.22
2023-04-06T14:13:58.346Z,7.70
2023-04-06T14:16:47.835Z,5.13
2023-04-06T14:19:33.276Z,7.60
2023-04-06T14:22:18.747Z,5.28
2023-04-06T14:25:04.298Z,7.85
2023-04-06T14:27:49.616Z,4.50
2023-04-06T14:30:35.224Z,8.38
2023-04-06T14:33:20.382Z,6.15
2023-04-06T14:36:06.531Z,7.28
2023-04-06T14:38:51.660Z,6.53
2023-04-06T14:41:37.066Z,5.65
2023-04-06T14:44:22.561Z,6.07
2023-04-06T14:47:08.076Z,8.13
2023-04-06T14:49:54.327Z,8.57
2023-04-06T14:52:39.337Z,5.25
2023-04-06T14:55:24.663Z,5.53
2023-04-06T14:58:09.951Z,5.53
2023-04-06T15:01:02.291Z,5.22
2023-04-06T15:06:33.897Z,7.10
2023-04-06T15:09:19.285Z,5.03
2023-04-06T15:12:04.808Z,4.38
2023-04-06T15:14:49.837Z,6.00
2023-04-06T15:17:35.344Z,6.00
2023-04-06T15:20:20.552Z,5.40
2023-04-06T15:23:05.839Z,5.78
2023-04-06T15:25:51.705Z,5.28
2023-04-06T15:28:36.978Z,7.00
2023-04-06T15:31:33.574Z,6.85
2023-04-06T15:34:22.657Z,6.28
2023-04-06T15:37:08.850Z,5.55
2023-04-06T15:39:53.990Z,6.32
2023-04-06T15:42:39.321Z,6.38
2023-04-06T15:45:25.013Z,6.25
2023-04-06T15:48:10.344Z,5.65
2023-04-06T15:50:58.565Z,6.22
2023-04-06T15:53:44.691Z,9.65
2023-04-06T15:56:30.364Z,6.57
2023-04-06T15:59:16.758Z,4.90
2023-04-06T16:02:02.642Z,7.68
2023-04-06T16:04:47.724Z,9.57
2023-04-06T16:07:34.572Z,6.28
2023-04-06T16:10:19.616Z,8.20
2023-04-06T16:13:05.011Z,6.22
2023-04-06T16:15:51.156Z,9.20
2023-04-06T16:18:36.755Z,7.45
2023-04-06T16:21:22.131Z,6.40
2023-04-06T16:24:08.504Z,6.95
2023-04-06T16:26:53.958Z,9.23
2023-04-06T16:29:39.412Z,7.28
2023-04-06T16:32:24.782Z,6.82
2023-04-06T16:35:10.702Z,6.15
2023-04-06T16:37:56.003Z,7.60
2023-04-06T16:40:41.594Z,7.70
2023-04-06T16:43:27.343Z,6.82
2023-04-06T16:46:12.788Z,7.00
2023-04-06T16:48:59.514Z,6.78
2023-04-06T16:51:44.674Z,8.18
2023-04-06T16:54:29.927Z,7.00
2023-04-06T16:57:15.732Z,6.03
2023-04-06T17:00:02.927Z,6.75
2023-04-06T17:02:48.438Z,6.43
2023-04-06T17:05:34.791Z,7.63
2023-04-06T17:08:20.211Z,6.63
2023-04-06T17:11:05.820Z,6.93
2023-04-06T17:13:51.030Z,6.38
2023-04-06T17:16:36.348Z,6.93
2023-04-06T17:19:21.626Z,7.10
2023-04-06T17:22:06.980Z,6.38
2023-04-06T17:24:52.401Z,8.88
2023-04-06T17:27:37.773Z,6.28
2023-04-06T17:30:23.452Z,7.38
2023-04-06T17:33:09.916Z,9.25
2023-04-06T17:35:55.406Z,6.53
2023-04-06T17:38:43.942Z,6.68
2023-04-06T17:41:32.538Z,8.15
2023-04-06T17:44:18.169Z,5.40
2023-04-06T17:47:03.545Z,6.85
2023-04-06T17:49:49.802Z,7.65
2023-04-06T17:52:36.018Z,6.35
2023-04-06T17:55:22.390Z,5.43
2023-04-06T17:58:07.672Z,4.80
2023-04-06T18:00:53.149Z,8.23
2023-04-06T18:03:38.732Z,6.32
2023-04-06T18:06:25.659Z,6.78
2023-04-06T18:09:11.408Z,10.55
2023-04-06T18:11:57.155Z,12.10
2023-04-06T18:14:42.903Z,8.25
2023-04-06T18:17:28.532Z,6.82
2023-04-06T18:20:15.164Z,7.97
2023-04-06T18:23:00.951Z,8.10
2023-04-06T18:25:46.370Z,6.70
2023-04-06T18:28:31.871Z,6.32
2023-04-06T18:31:17.553Z,9.35
2023-04-06T18:34:03.428Z,8.27
2023-04-06T18:36:48.707Z,10.65
2023-04-06T18:39:34.111Z,10.77
2023-04-06T18:42:19.609Z,6.88
2023-04-06T18:45:05.569Z,9.25
2023-04-06T18:47:51.016Z,9.30
2023-04-06T18:50:36.372Z,9.85
2023-04-06T18:53:21.808Z,8.80
2023-04-06T18:56:14.936Z,9.48
2023-04-06T19:01:50.959Z,11.80
2023-04-06T19:04:36.339Z,11.23
2023-04-06T19:07:22.239Z,11.18
2023-04-06T19:10:08.799Z,9.88
2023-04-06T19:12:54.296Z,8.90
2023-04-06T19:15:43.991Z,8.77
2023-04-06T19:18:29.242Z,11.60
2023-04-06T19:21:19.675Z,10.05
2023-04-06T19:24:05.017Z,10.02
2023-04-06T19:26:50.509Z,10.52
2023-04-06T19:29:38.435Z,8.85
2023-04-06T19:32:23.986Z,9.43
2023-04-06T19:35:09.745Z,9.18
2023-04-06T19:37:55.612Z,7.80
2023-04-06T19:40:40.931Z,11.25
2023-04-06T19:43:26.706Z,8.55
2023-04-06T19:46:11.912Z,11.65
2023-04-06T19:48:57.264Z,9.18
2023-04-06T19:51:43.711Z,8.52
2023-04-06T19:54:29.175Z,9.75
2023-04-06T19:57:15.322Z,8.10
2023-04-06T20:00:00.352Z,10.32
2023-04-06T20:02:46.234Z,12.07
2023-04-06T20:05:31.705Z,10.55
2023-04-06T20:08:17.074Z,12.90
2023-04-06T20:11:04.554Z,15.55
2023-04-06T20:13:49.997Z,20.20
2023-04-06T20:16:35.580Z,17.65
2023-04-06T20:19:20.609Z,15.98
2023-04-06T20:22:05.909Z,16.10
2023-04-06T20:24:51.578Z,14.30
2023-04-06T20:27:36.810Z,14.02
2023-04-06T20:30:22.392Z,14.02
2023-04-06T20:33:07.824Z,11.55
2023-04-06T20:36:01.194Z,11.65
2023-04-06T20:38:46.296Z,11.40
2023-04-06T20:41:31.609Z,12.02
2023-04-06T20:44:18.192Z,12.45
2023-04-06T20:47:04.298Z,12.73
2023-04-06T20:49:50.100Z,11.50
2023-04-06T20:52:35.269Z,11.70
2023-04-06T20:55:20.707Z,11.52
2023-04-06T20:58:05.922Z,10.32
2023-04-06T21:00:51.641Z,9.32
2023-04-06T21:03:36.828Z,10.60
2023-04-06T21:06:22.046Z,10.30
2023-04-06T21:09:07.485Z,11.93
2023-04-06T21:11:52.915Z,11.38
2023-04-06T21:14:38.123Z,10.88
2023-04-06T21:17:24.035Z,11.52
2023-04-06T21:20:10.115Z,14.43
2023-04-06T21:22:55.394Z,12.40
2023-04-06T21:25:40.704Z,12.63
2023-04-06T21:28:26.784Z,11.38
2023-04-06T21:31:11.960Z,8.30
2023-04-06T21:33:57.198Z,9.45
2023-04-06T21:36:42.725Z,10.38
2023-04-06T21:39:28.039Z,9.10
2023-04-06T21:42:13.496Z,8.25
2023-04-06T21:44:59.162Z,8.52
2023-04-06T21:47:45.588Z,8.63
2023-04-06T21:50:30.995Z,9.85
2023-04-06T21:53:16.237Z,9.18
2023-04-06T21:56:02.613Z,8.98
2023-04-06T21:58:48.185Z,9.98
2023-04-06T22:01:33.617Z,8.98
2023-04-06T22:04:19.163Z,8.95
2023-04-06T22:07:04.857Z,7.55
2023-04-06T22:09:53.738Z,8.45
2023-04-06T22:12:39.439Z,8.35
2023-04-06T22:15:24.785Z,10.85
2023-04-06T22:18:10.214Z,13.00
2023-04-06T22:20:55.995Z,8.52
2023-04-06T22:23:42.547Z,7.93
2023-04-06T22:26:28.222Z,10.75
2023-04-06T22:29:13.591Z,9.65
2023-04-06T22:31:59.056Z,10.23
2023-04-06T22:34:44.661Z,10.30
2023-04-06T22:37:29.729Z,9.25
2023-04-06T22:40:15.359Z,10.82
2023-04-06T22:43:00.425Z,9.15
2023-04-06T22:45:46.025Z,15.43
2023-04-06T22:48:31.206Z,11.88
2023-04-06T22:51:16.680Z,9.65
2023-04-06T22:54:02.205Z,10.70
2023-04-06T22:56:47.776Z,8.18
2023-04-06T22:59:32.778Z,10.00
2023-04-06T23:02:18.217Z,8.95
2023-04-06T23:05:03.560Z,8.95
2023-04-06T23:07:48.907Z,10.60
2023-04-06T23:10:34.151Z,11.45
2023-04-06T23:13:19.572Z,7.75
2023-04-06T23:16:05.168Z,10.63
2023-04-06T23:18:50.385Z,9.45
2023-04-06T23:21:36.024Z,9.73
2023-04-06T23:24:21.213Z,9.93
2023-04-06T23:27:06.551Z,8.65
2023-04-06T23:29:51.761Z,8.77
2023-04-06T23:32:37.343Z,8.77
2023-04-06T23:35:22.610Z,9.00
2023-04-06T23:38:08.020Z,7.05
2023-04-06T23:40:53.522Z,10.02
2023-04-06T23:43:38.852Z,7.78
2023-04-06T23:46:24.367Z,8.93
2023-04-06T23:49:09.706Z,12.13
2023-04-06T23:51:55.013Z,12.45
2023-04-06T23:54:40.504Z,12.60
2023-04-06T23:57:26.083Z,9.98
